Time;durP1;ratioP1;P1;durP2;ratioP2;P2;SDS_P1;SDS_P2;PMS_P1;PMS_P2;Temp;Humidity;BMP_temperature;BMP_pressure;BME280_temperature;BME280_humidity;BME280_pressure;Samples;Min_cycle;Max_cycle;Signal;HPM_P1;HPM_P2
2022/01/13 00:00:56;;;;;;;138.27;17.27;;;;;;;2.94;100.00;104062.94;5075667;28;20024;-44
2022/01/13 00:03:21;;;;;;;161.00;16.30;;;;;;;2.96;100.00;104061.09;5091360;28;20541;-44
2022/01/13 00:05:47;;;;;;;169.15;17.48;;;;;;;2.92;100.00;104056.78;5091803;28;20042;-43
2022/01/13 00:08:12;;;;;;;150.73;18.45;;;;;;;2.99;100.00;104058.31;5091736;28;20024;-44
2022/01/13 00:10:37;;;;;;;101.63;16.80;;;;;;;3.03;100.00;104070.63;5084796;28;20490;-44
2022/01/13 00:13:07;;;;;;;159.50;19.00;;;;;;;3.06;100.00;104063.38;5075425;28;20449;-44
2022/01/13 00:15:40;;;;;;;137.77;18.75;;;;;;;3.10;100.00;104071.25;5095775;28;20477;-44
2022/01/13 00:18:13;;;;;;;219.40;18.40;;;;;;;3.04;100.00;104062.56;5095589;28;20035;-43
2022/01/13 00:21:11;;;;;;;147.73;18.58;;;;;;;3.02;100.00;104056.41;5095708;28;20032;-45
2022/01/13 00:23:45;;;;;;;181.57;17.10;;;;;;;2.94;100.00;104049.63;5081416;28;20047;-45
2022/01/13 00:26:23;;;;;;;160.17;16.77;;;;;;;2.95;100.00;104049.59;5094920;28;20032;-45
2022/01/13 00:28:52;;;;;;;215.40;19.10;;;;;;;2.89;100.00;104051.59;5092319;28;20027;-43
2022/01/13 00:31:27;;;;;;;194.95;16.88;;;;;;;2.90;100.00;104051.53;5075207;28;20112;-44
2022/01/13 00:33:54;;;;;;;141.52;19.00;;;;;;;3.00;100.00;104044.97;5078196;28;20728;-43
2022/01/13 00:36:27;;;;;;;110.78;17.58;;;;;;;3.06;100.00;104046.56;5076693;28;20038;-42
2022/01/13 00:38:54;;;;;;;141.20;18.45;;;;;;;3.11;100.00;104041.94;5095294;28;20376;-43
2022/01/13 00:41:19;;;;;;;94.63;16.55;;;;;;;3.06;100.00;104054.53;5095218;28;20407;-44
2022/01/13 00:43:47;;;;;;;173.63;19.90;;;;;;;3.07;100.00;104050.94;5070782;28;20032;-43
2022/01/13 00:46:25;;;;;;;197.77;21.17;;;;;;;3.05;100.00;104058.09;5076065;28;20020;-43
2022/01/13 00:48:52;;;;;;;221.10;19.08;;;;;;;3.05;100.00;104059.00;5058845;28;20017;-43
2022/01/13 00:51:19;;;;;;;186.27;19.55;;;;;;;3.12;100.00;104058.78;5040045;28;20093;-44
2022/01/13 00:53:45;;;;;;;223.90;20.30;;;;;;;3.06;100.00;104057.19;5074798;28;20052;-44
2022/01/13 00:56:10;;;;;;;255.57;24.33;;;;;;;3.06;100.00;104066.03;5076994;28;20108;-44
2022/01/13 00:58:36;;;;;;;257.23;24.65;;;;;;;3.05;100.00;104058.09;5094711;28;20494;-44
2022/01/13 01:01:03;;;;;;;202.23;22.42;;;;;;;3.08;100.00;104056.22;5087418;28;20116;-43
2022/01/13 01:03:29;;;;;;;139.68;20.88;;;;;;;3.12;100.00;104058.78;5090508;28;20028;-44
2022/01/13 01:05:55;;;;;;;134.77;21.27;;;;;;;3.17;100.00;104060.34;5094398;28;20058;-43
2022/01/13 01:08:21;;;;;;;234.15;26.90;;;;;;;3.16;100.00;104071.03;5094863;28;20051;-44
2022/01/13 01:10:49;;;;;;;214.82;21.70;;;;;;;3.15;100.00;104071.97;5094661;28;20040;-43
2022/01/13 01:13:19;;;;;;;236.70;22.75;;;;;;;3.18;100.00;104067.38;5090926;28;20365;-44
2022/01/13 01:15:50;;;;;;;155.32;19.55;;;;;;;3.26;100.00;104078.63;5074617;28;20036;-43
2022/01/13 01:18:29;;;;;;;172.40;22.40;;;;;;;3.28;100.00;104074.13;5090340;28;20506;-43
2022/01/13 01:23:29;;;;;;;247.68;25.25;;;;;;;3.32;100.00;104076.69;5094140;28;20121;-43
2022/01/13 01:26:04;;;;;;;257.95;25.10;;;;;;;3.33;100.00;104079.28;5093428;28;20542;-43
2022/01/13 01:28:39;;;;;;;158.85;23.08;;;;;;;3.32;100.00;104074.91;5092131;28;20069;-45
2022/01/13 01:31:05;;;;;;;257.80;28.70;;;;;;;3.37;100.00;104082.69;5094450;28;20131;-43
2022/01/13 01:33:33;;;;;;;279.92;26.27;;;;;;;3.41;100.00;104079.88;5088519;28;20055;-44
2022/01/13 01:35:58;;;;;;;246.70;26.95;;;;;;;3.34;100.00;104080.16;5090278;28;20029;-45
2022/01/13 01:38:23;;;;;;;207.23;25.40;;;;;;;3.39;100.00;104083.53;5073836;28;20029;-44
2022/01/13 01:40:49;;;;;;;172.63;24.15;;;;;;;3.40;100.00;104080.81;5056036;28;20020;-44
2022/01/13 01:43:14;;;;;;;222.23;26.95;;;;;;;3.43;100.00;104079.84;5077950;28;20028;-44
2022/01/13 01:45:48;;;;;;;289.80;29.90;;;;;;;3.38;100.00;104076.47;5093590;28;20024;-44
2022/01/13 01:48:18;;;;;;;229.07;26.95;;;;;;;3.38;100.00;104073.81;5091312;28;20024;-43
2022/01/13 01:50:53;;;;;;;187.07;27.23;;;;;;;3.41;100.00;104073.69;5080768;28;20054;-44
2022/01/13 01:53:18;;;;;;;204.95;28.60;;;;;;;3.43;100.00;104077.19;5093845;28;20463;-43
2022/01/13 01:55:44;;;;;;;261.10;29.77;;;;;;;3.47;100.00;104078.78;5093807;28;20028;-45
2022/01/13 01:58:10;;;;;;;183.68;26.40;;;;;;;3.47;100.00;104073.47;5075695;28;20032;-44
2022/01/13 02:00:35;;;;;;;302.10;26.85;;;;;;;3.39;100.00;104075.53;5075413;28;20020;-44
2022/01/13 02:03:01;;;;;;;294.42;28.50;;;;;;;3.33;100.00;104079.28;5092136;28;20034;-44
2022/01/13 02:05:26;;;;;;;280.63;26.00;;;;;;;3.32;100.00;104068.69;5061353;28;20032;-43
2022/01/13 02:07:52;;;;;;;284.00;26.67;;;;;;;3.36;100.00;104071.19;5073437;28;20051;-44
2022/01/13 02:10:18;;;;;;;298.63;27.65;;;;;;;3.32;100.00;104068.69;5085771;28;20035;-44
2022/01/13 02:12:47;;;;;;;217.77;24.70;;;;;;;3.39;100.00;104070.22;5057650;28;20028;-43
2022/01/13 02:15:29;;;;;;;260.85;23.85;;;;;;;3.33;100.00;104067.78;5057570;28;20024;-43
2022/01/13 02:17:57;;;;;;;191.23;23.85;;;;;;;3.32;100.00;104068.69;5077807;28;20089;-45
2022/01/13 02:20:22;;;;;;;232.63;23.85;;;;;;;3.35;100.00;104063.28;5087537;28;20390;-45
2022/01/13 02:22:47;;;;;;;419.02;30.00;;;;;;;3.38;100.00;104057.84;5090850;28;20040;-44
2022/01/13 02:25:14;;;;;;;388.00;29.90;;;;;;;3.39;100.00;104063.09;5091443;28;20032;-42
2022/01/13 02:27:40;;;;;;;306.58;28.17;;;;;;;3.41;100.00;104057.72;5092367;28;20028;-43
2022/01/13 02:30:05;;;;;;;344.08;30.88;;;;;;;3.39;100.00;104051.56;5092007;28;20042;-43
2022/01/13 02:32:31;;;;;;;372.20;27.10;;;;;;;3.39;100.00;104044.44;5074165;28;20123;-45
2022/01/13 02:34:56;;;;;;;407.50;29.88;;;;;;;3.38;100.00;104039.19;5091782;28;20023;-45
2022/01/13 02:37:21;;;;;;;338.08;28.10;;;;;;;3.37;100.00;104027.69;5060039;28;20056;-44
2022/01/13 02:39:47;;;;;;;359.52;29.25;;;;;;;3.42;100.00;104022.16;5072813;28;20112;-45
2022/01/13 02:42:13;;;;;;;300.58;27.08;;;;;;;3.40;100.00;104018.72;5072961;28;20495;-43
2022/01/13 02:45:04;;;;;;;273.05;28.75;;;;;;;3.45;100.00;104019.38;5072731;28;20044;-44
2022/01/13 02:49:59;;;;;;;251.98;29.00;;;;;;;3.47;100.00;104014.88;5072752;28;20037;-45
2022/01/13 02:52:24;;;;;;;337.92;30.55;;;;;;;3.41;100.00;104013.31;5061255;28;20388;-43
2022/01/13 02:54:49;;;;;;;249.07;30.70;;;;;;;3.45;100.00;104006.06;5092367;28;20107;-43
2022/01/13 02:57:15;;;;;;;365.75;35.08;;;;;;;3.45;100.00;104016.72;5092778;28;20024;-42
2022/01/13 02:59:40;;;;;;;448.58;34.80;;;;;;;3.42;100.00;104011.53;5092408;28;20028;-43
2022/01/13 03:02:05;;;;;;;288.35;30.10;;;;;;;3.48;100.00;104011.31;5078706;28;20032;-44
2022/01/13 03:04:31;;;;;;;325.10;33.88;;;;;;;3.51;100.00;104021.84;5072161;28;20028;-43
2022/01/13 03:06:57;;;;;;;353.40;33.75;;;;;;;3.52;100.00;104020.91;5072744;28;20084;-45
2022/01/13 03:09:22;;;;;;;267.30;31.48;;;;;;;3.57;100.00;104020.75;5080824;28;20131;-44
2022/01/13 03:11:48;;;;;;;350.77;31.55;;;;;;;3.61;100.00;104017.03;5072313;28;20052;-46
2022/01/13 03:14:13;;;;;;;307.38;33.08;;;;;;;3.62;100.00;104008.97;5077207;28;20033;-47
2022/01/13 03:16:42;;;;;;;479.05;33.92;;;;;;;3.62;100.00;104016.97;5054180;28;20039;-44
2022/01/13 03:19:08;;;;;;;342.95;33.22;;;;;;;3.59;100.00;104019.75;5072216;28;20482;-44
2022/01/13 03:21:33;;;;;;;338.30;32.97;;;;;;;3.62;100.00;104019.63;5073391;28;20107;-44
2022/01/13 03:23:58;;;;;;;371.92;35.10;;;;;;;3.65;100.00;104014.19;5076079;28;20028;-45
2022/01/13 03:26:24;;;;;;;257.70;30.70;;;;;;;3.66;100.00;104020.38;5072334;28;20025;-44
2022/01/13 03:28:51;;;;;;;326.10;34.15;;;;;;;3.69;100.00;104012.28;5071804;28;20029;-44
2022/01/13 03:31:21;;;;;;;352.77;35.58;;;;;;;3.65;100.00;104015.97;5072231;28;20032;-42
2022/01/13 03:33:47;;;;;;;359.80;34.95;;;;;;;3.66;100.00;104015.03;5085833;28;20063;-44
2022/01/13 03:36:13;;;;;;;325.35;35.15;;;;;;;3.66;100.00;104013.28;5073885;28;20024;-44
2022/01/13 03:38:38;;;;;;;333.33;34.05;;;;;;;3.70;100.00;104006.03;5072807;28;20031;-44
2022/01/13 03:41:04;;;;;;;310.10;35.03;;;;;;;3.73;100.00;103996.09;5087454;28;20545;-46
2022/01/13 03:43:30;;;;;;;386.25;36.08;;;;;;;3.67;100.00;103995.50;5091918;28;20032;-43
2022/01/13 03:45:55;;;;;;;381.67;37.25;;;;;;;3.68;100.00;103998.06;5057671;28;20024;-45
2022/01/13 03:48:21;;;;;;;428.45;38.72;;;;;;;3.67;100.00;103999.03;5071734;28;20121;-43
2022/01/13 03:50:47;;;;;;;406.05;36.80;;;;;;;3.62;100.00;103997.47;5072246;28;20025;-44
2022/01/13 03:53:27;;;;;;;351.80;37.42;;;;;;;3.67;100.00;103995.50;5073540;28;20559;-44
2022/01/13 03:56:09;;;;;;;426.25;39.58;;;;;;;3.67;100.00;103991.03;5086063;28;20046;-44
2022/01/13 03:59:19;;;;;;;331.33;36.40;;;;;;;3.66;100.00;103994.63;5071667;28;20029;-43
2022/01/13 04:02:03;;;;;;;372.65;39.08;;;;;;;3.66;100.00;103989.31;5071488;28;20024;-43
2022/01/13 04:04:30;;;;;;;315.13;35.60;;;;;;;3.69;100.00;103997.16;5071718;28;20040;-44
2022/01/13 04:07:17;;;;;;;346.75;36.60;;;;;;;3.66;100.00;104007.94;5071577;28;20024;-45
2022/01/13 04:09:51;;;;;;;351.17;35.70;;;;;;;3.66;100.00;104009.72;5085242;28;20036;-43
2022/01/13 04:12:19;;;;;;;391.35;39.33;;;;;;;3.66;100.00;104012.38;5074765;28;20480;-44
2022/01/13 04:14:48;;;;;;;313.98;36.17;;;;;;;3.68;100.00;104013.19;5071249;28;20028;-44
2022/01/13 04:17:16;;;;;;;381.02;40.28;;;;;;;3.65;100.00;104003.53;5071591;28;20017;-45
2022/01/13 04:19:42;;;;;;;380.10;39.35;;;;;;;3.64;100.00;104007.13;5071435;28;20052;-44
2022/01/13 04:22:08;;;;;;;433.13;36.95;;;;;;;3.60;100.00;104000.16;5088630;28;20535;-44
2022/01/13 04:24:35;;;;;;;391.17;36.17;;;;;;;3.64;100.00;104000.94;5073297;28;20028;-44
2022/01/13 04:27:01;;;;;;;445.08;38.65;;;;;;;3.64;100.00;103993.81;5075706;28;20152;-44
2022/01/13 04:29:46;;;;;;;368.63;36.17;;;;;;;3.65;100.00;104006.19;5073376;28;20483;-44
2022/01/13 04:32:11;;;;;;;345.95;39.53;;;;;;;3.64;100.00;103996.47;5089990;28;20020;-44
2022/01/13 04:34:36;;;;;;;388.50;37.22;;;;;;;3.65;100.00;104002.66;5070985;28;20048;-44
2022/01/13 04:37:02;;;;;;;416.67;36.38;;;;;;;3.66;100.00;103994.63;5071371;28;20025;-45
2022/01/13 04:39:29;;;;;;;349.83;34.67;;;;;;;3.69;100.00;103994.50;5071217;28;20603;-45
2022/01/13 04:41:55;;;;;;;342.88;36.30;;;;;;;3.65;100.00;104003.53;5071389;28;20028;-43
2022/01/13 04:44:24;;;;;;;358.85;35.20;;;;;;;3.70;100.00;104001.56;5059197;28;20089;-43
2022/01/13 04:46:51;;;;;;;349.77;35.10;;;;;;;3.72;100.00;104005.03;5073232;28;20032;-43
2022/01/13 04:49:21;;;;;;;278.65;33.08;;;;;;;3.75;100.00;103993.41;5073186;28;20016;-43
2022/01/13 04:51:49;;;;;;;412.70;38.65;;;;;;;3.71;100.00;103995.31;5091015;28;20067;-43
2022/01/13 04:54:15;;;;;;;354.73;33.10;;;;;;;3.69;100.00;103994.50;5091090;28;20024;-43
2022/01/13 04:56:44;;;;;;;385.25;37.03;;;;;;;3.70;100.00;104003.34;5086051;28;20031;-44
2022/01/13 04:59:11;;;;;;;346.38;36.78;;;;;;;3.70;100.00;104001.56;5080338;28;20032;-45
2022/01/13 05:01:36;;;;;;;298.90;34.33;;;;;;;3.72;100.00;103999.72;5094784;28;20036;-44
2022/01/13 05:04:03;;;;;;;351.58;37.15;;;;;;;3.71;100.00;103997.09;5076611;28;20119;-42
2022/01/13 05:06:28;;;;;;;340.10;37.92;;;;;;;3.73;100.00;104004.09;5074528;28;20032;-43
2022/01/13 05:08:53;;;;;;;338.13;35.28;;;;;;;3.73;100.00;103995.25;5081174;28;20032;-43
2022/01/13 05:11:20;;;;;;;378.15;38.40;;;;;;;3.73;100.00;103996.09;5094747;28;20032;-44
2022/01/13 05:13:45;;;;;;;326.63;35.70;;;;;;;3.77;100.00;103991.56;5093158;28;20169;-44
2022/01/13 05:16:20;;;;;;;378.17;36.40;;;;;;;3.75;100.00;104006.72;5080582;28;20092;-44
2022/01/13 05:18:57;;;;;;;272.20;33.33;;;;;;;3.80;100.00;103998.56;5087264;28;20028;-44
2022/01/13 05:21:26;;;;;;;377.08;35.70;;;;;;;3.81;100.00;104002.94;5092122;28;20032;-43
2022/01/13 05:23:52;;;;;;;332.08;39.53;;;;;;;3.82;100.00;103997.56;5094564;28;20154;-43
2022/01/13 05:26:19;;;;;;;381.52;39.17;;;;;;;3.80;100.00;104006.53;5094418;28;20435;-45
2022/01/13 05:28:45;;;;;;;344.52;36.83;;;;;;;3.77;100.00;104006.66;5094291;28;20028;-43
2022/01/13 05:31:10;;;;;;;374.20;38.75;;;;;;;3.76;100.00;104004.91;5097145;28;20028;-44
2022/01/13 05:33:35;;;;;;;427.83;40.20;;;;;;;3.76;100.00;104004.91;5100152;28;20040;-44
2022/01/13 05:36:01;;;;;;;478.33;43.33;;;;;;;3.78;100.00;103997.75;5094053;28;20024;-43
2022/01/13 05:38:27;;;;;;;415.90;41.60;;;;;;;3.80;100.00;103985.22;5094029;28;20032;-43
2022/01/13 05:40:53;;;;;;;321.33;39.38;;;;;;;3.84;100.00;103994.81;5092591;28;20055;-44
2022/01/13 05:43:19;;;;;;;368.55;41.53;;;;;;;3.87;100.00;103992.91;5093904;28;20024;-42
2022/01/13 05:45:44;;;;;;;387.10;39.85;;;;;;;3.89;100.00;103995.50;5088657;28;20036;-43
2022/01/13 05:48:10;;;;;;;376.13;40.67;;;;;;;3.91;100.00;103999.00;5093870;28;20020;-44
2022/01/13 05:50:35;;;;;;;428.77;43.80;;;;;;;3.90;100.00;103994.59;5093877;28;20032;-44
2022/01/13 05:53:01;;;;;;;388.80;42.13;;;;;;;3.93;100.00;103992.66;5093169;28;20085;-44
2022/01/13 05:55:26;;;;;;;411.90;43.33;;;;;;;3.91;100.00;103983.84;5093620;28;20081;-44
2022/01/13 05:57:52;;;;;;;397.65;43.03;;;;;;;3.92;100.00;103985.63;5093150;28;20039;-45
2022/01/13 06:00:19;;;;;;;370.67;41.85;;;;;;;3.94;100.00;103988.19;5093624;28;20036;-44
2022/01/13 06:02:46;;;;;;;324.83;39.20;;;;;;;3.96;100.00;103991.69;5087608;28;20530;-44
2022/01/13 06:05:11;;;;;;;362.13;41.83;;;;;;;3.99;100.00;103991.56;5092529;28;20526;-45
2022/01/13 06:07:37;;;;;;;344.48;41.13;;;;;;;4.01;100.00;103999.50;5093563;28;20056;-45
2022/01/13 06:10:05;;;;;;;361.23;40.72;;;;;;;4.01;100.00;103995.03;5077482;28;20052;-44
2022/01/13 06:12:33;;;;;;;335.25;41.95;;;;;;;4.04;100.00;103997.56;5076137;28;20035;-44
2022/01/13 06:15:02;;;;;;;359.58;42.00;;;;;;;4.06;100.00;104000.19;5075844;28;20029;-44
2022/01/13 06:17:34;;;;;;;420.73;44.22;;;;;;;4.10;100.00;103999.97;5074479;28;20043;-44
2022/01/13 06:19:59;;;;;;;358.08;41.47;;;;;;;4.09;100.00;103998.25;5082682;28;20032;-44
2022/01/13 06:22:25;;;;;;;386.00;38.67;;;;;;;4.09;100.00;104003.59;5091664;28;20085;-44
2022/01/13 06:24:52;;;;;;;402.33;41.25;;;;;;;4.06;100.00;103998.38;5093473;28;20109;-45
2022/01/13 06:27:18;;;;;;;399.67;40.17;;;;;;;4.08;100.00;104001.84;5093497;28;20020;-45
2022/01/13 06:29:43;;;;;;;342.83;39.20;;;;;;;4.07;100.00;104004.56;5093266;28;20031;-46
2022/01/13 06:32:08;;;;;;;407.50;40.05;;;;;;;4.06;100.00;103998.38;5090960;28;20102;-45
2022/01/13 06:34:34;;;;;;;366.33;41.35;;;;;;;4.08;100.00;103996.53;5088206;28;20044;-45
2022/01/13 06:36:59;;;;;;;390.13;40.80;;;;;;;4.11;100.00;103999.06;5087538;28;20479;-45
2022/01/13 06:39:24;;;;;;;385.95;40.15;;;;;;;4.11;100.00;103996.41;5092606;28;20028;-44
2022/01/13 06:41:50;;;;;;;410.95;41.97;;;;;;;4.09;100.00;103990.25;5092865;28;20103;-45
2022/01/13 06:44:15;;;;;;;383.88;40.72;;;;;;;4.09;100.00;103995.59;5083823;28;20028;-46
2022/01/13 06:46:40;;;;;;;409.33;41.28;;;;;;;4.12;100.00;104002.59;5084431;28;20067;-45
2022/01/13 06:49:06;;;;;;;422.90;42.13;;;;;;;4.12;100.00;103990.13;5056111;28;20032;-44
2022/01/13 06:51:31;;;;;;;344.30;40.05;;;;;;;4.16;100.00;103998.84;5068226;28;20055;-45
2022/01/13 06:53:56;;;;;;;382.85;40.88;;;;;;;4.10;100.00;103994.66;5092337;28;20020;-45
2022/01/13 06:56:24;;;;;;;409.13;41.78;;;;;;;4.07;100.00;104002.78;5077100;28;20071;-45
2022/01/13 06:58:50;;;;;;;338.40;40.38;;;;;;;4.12;100.00;104011.44;5054985;28;20396;-46
2022/01/13 07:01:15;;;;;;;422.95;40.58;;;;;;;4.12;100.00;104002.59;5077382;28;20065;-44
2022/01/13 07:03:41;;;;;;;359.17;42.17;;;;;;;4.12;100.00;104005.25;5079271;28;20056;-43
2022/01/13 07:06:24;;;;;;;389.00;42.03;;;;;;;4.10;100.00;104005.31;5061318;28;20390;-44
2022/01/13 07:08:49;;;;;;;401.70;42.55;;;;;;;4.11;100.00;104007.06;5065488;28;20531;-44
2022/01/13 07:11:15;;;;;;;429.13;40.67;;;;;;;4.12;100.00;104002.59;5058997;28;20111;-45
2022/01/13 07:13:40;;;;;;;425.27;40.58;;;;;;;4.10;100.00;103999.97;5061266;28;20492;-46
2022/01/13 07:16:05;;;;;;;388.05;40.58;;;;;;;4.13;100.00;104004.31;5055600;28;20502;-45
2022/01/13 07:18:31;;;;;;;368.20;39.28;;;;;;;4.16;100.00;104004.19;5047771;28;20109;-46
2022/01/13 07:20:57;;;;;;;400.98;42.13;;;;;;;4.18;100.00;103997.88;5045530;28;20433;-45
2022/01/13 07:23:22;;;;;;;334.48;41.13;;;;;;;4.23;100.00;103994.16;5044903;28;20064;-45
2022/01/13 07:25:48;;;;;;;334.70;41.72;;;;;;;4.27;100.00;103995.78;5048068;28;20117;-45
2022/01/13 07:28:13;;;;;;;351.33;40.25;;;;;;;4.26;100.00;104000.22;5048649;28;20041;-45
2022/01/13 07:30:40;;;;;;;366.63;40.17;;;;;;;4.27;100.00;103993.97;5047846;28;20404;-45
2022/01/13 07:33:05;;;;;;;334.05;40.33;;;;;;;4.31;100.00;104000.91;5048674;28;20388;-44
2022/01/13 07:35:31;;;;;;;322.42;42.15;;;;;;;4.30;100.00;104001.84;5047410;28;20017;-44
2022/01/13 07:37:56;;;;;;;408.60;45.10;;;;;;;4.30;100.00;104003.66;5047737;28;20049;-43
2022/01/13 07:40:22;;;;;;;345.83;44.08;;;;;;;4.31;100.00;104008.03;5047485;28;20033;-44
2022/01/13 07:42:47;;;;;;;382.88;44.08;;;;;;;4.29;100.00;104007.22;5047572;28;20439;-46
2022/01/13 07:45:14;;;;;;;315.15;41.90;;;;;;;4.34;100.00;104005.22;5047513;28;20040;-45
2022/01/13 07:47:40;;;;;;;399.80;43.90;;;;;;;4.29;100.00;104016.13;5048351;28;20131;-45
2022/01/13 07:50:07;;;;;;;360.15;44.22;;;;;;;4.31;100.00;104022.22;5047894;28;20065;-46
2022/01/13 07:52:32;;;;;;;364.20;44.75;;;;;;;4.31;100.00;104019.56;5048116;28;20055;-45
2022/01/13 07:54:57;;;;;;;381.90;46.00;;;;;;;4.36;100.00;104016.72;5047744;28;20521;-46
2022/01/13 07:57:23;;;;;;;369.58;40.55;;;;;;;4.40;100.00;104024.53;5047927;28;20376;-45
2022/01/13 07:59:48;;;;;;;303.92;41.10;;;;;;;4.46;100.00;104033.22;5047487;28;20022;-46
2022/01/13 08:02:14;;;;;;;330.10;40.72;;;;;;;4.44;100.00;104035.06;5033356;28;20063;-47
2022/01/13 08:04:39;;;;;;;327.45;42.50;;;;;;;4.48;100.00;104026.88;5040611;28;20054;-45
2022/01/13 08:07:04;;;;;;;348.25;41.42;;;;;;;4.47;100.00;104027.78;5046903;28;20061;-45
2022/01/13 08:09:30;;;;;;;328.90;41.78;;;;;;;4.49;100.00;104035.75;5047539;28;20040;-46
2022/01/13 08:11:55;;;;;;;326.90;37.75;;;;;;;4.50;100.00;104026.81;5046050;28;20498;-46
2022/01/13 08:14:20;;;;;;;316.73;40.53;;;;;;;4.56;100.00;104035.44;5045952;28;20548;-46
2022/01/13 08:16:47;;;;;;;322.80;38.67;;;;;;;4.57;100.00;104030.97;5039220;28;20440;-45
2022/01/13 08:21:56;;;;;;;297.83;37.05;;;;;;;4.57;100.00;104031.81;5047851;28;20048;-45
2022/01/13 08:24:22;;;;;;;298.13;37.88;;;;;;;4.60;100.00;104031.69;5033578;28;20033;-46
2022/01/13 08:26:47;;;;;;;302.13;35.75;;;;;;;4.56;100.00;104027.44;5033582;28;20032;-46
2022/01/13 08:29:12;;;;;;;321.08;36.85;;;;;;;4.54;100.00;104025.75;5033239;28;20037;-46
2022/01/13 08:31:38;;;;;;;314.23;39.50;;;;;;;4.56;100.00;104027.44;5033859;28;20064;-45
2022/01/13 08:34:03;;;;;;;320.23;37.65;;;;;;;4.59;100.00;104031.75;5020390;28;20493;-46
2022/01/13 08:36:28;;;;;;;338.08;37.78;;;;;;;4.59;100.00;104029.97;5034362;28;20040;-45
2022/01/13 08:38:54;;;;;;;341.15;37.35;;;;;;;4.57;100.00;104036.28;5033330;28;20026;-44
2022/01/13 08:41:20;;;;;;;286.63;36.47;;;;;;;4.58;100.00;104036.25;5034117;28;20378;-44
2022/01/13 08:43:45;;;;;;;306.02;34.17;;;;;;;4.57;100.00;104034.50;5032547;28;20354;-44
2022/01/13 08:46:10;;;;;;;303.70;35.60;;;;;;;4.58;100.00;104038.91;5033911;28;20384;-44
2022/01/13 08:48:36;;;;;;;358.42;34.97;;;;;;;4.58;100.00;104038.91;5033239;28;20112;-43
2022/01/13 08:51:03;;;;;;;314.00;36.22;;;;;;;4.57;100.00;104039.81;5042810;28;20104;-45
2022/01/13 08:53:29;;;;;;;349.42;39.63;;;;;;;4.56;100.00;104038.09;5037515;28;20025;-43
2022/01/13 08:55:55;;;;;;;314.13;36.25;;;;;;;4.60;100.00;104038.81;5033324;28;20545;-46
2022/01/13 08:58:24;;;;;;;368.58;36.90;;;;;;;4.57;100.00;104042.50;5033574;28;20107;-46
2022/01/13 09:00:52;;;;;;;363.80;38.65;;;;;;;4.59;100.00;104037.97;5032274;28;20052;-43
2022/01/13 09:03:18;;;;;;;322.75;38.58;;;;;;;4.67;100.00;104047.47;5030507;28;20036;-44
2022/01/13 09:05:44;;;;;;;291.67;35.55;;;;;;;4.67;100.00;104050.13;5033677;28;20409;-44
2022/01/13 09:08:11;;;;;;;361.90;37.67;;;;;;;4.70;100.00;104048.19;5024592;28;20041;-44
2022/01/13 09:10:40;;;;;;;327.95;37.10;;;;;;;4.69;100.00;104045.59;5031290;28;20484;-44
2022/01/13 09:13:12;;;;;;;296.08;38.20;;;;;;;4.70;100.00;104048.19;5030300;28;20041;-43
2022/01/13 09:15:42;;;;;;;318.67;38.95;;;;;;;4.79;100.00;104052.25;5033691;28;20032;-46
2022/01/13 09:18:11;;;;;;;358.88;38.53;;;;;;;4.75;100.00;104059.53;5035653;28;20079;-45
2022/01/13 09:20:38;;;;;;;284.70;36.72;;;;;;;4.75;100.00;104051.53;5038903;28;20025;-45
2022/01/13 09:23:03;;;;;;;286.05;35.67;;;;;;;4.77;100.00;104046.13;5032388;28;20060;-46
2022/01/13 09:25:31;;;;;;;273.08;38.22;;;;;;;4.80;100.00;104046.88;5033426;28;20075;-46
2022/01/13 09:27:56;;;;;;;;;;;;;;;4.86;100.00;104050.19;5025944;28;20017;-45
2022/01/13 09:30:23;;;;;;;277.65;36.53;;;;;;;4.88;100.00;104048.34;5032894;28;20230;-43
2022/01/13 09:32:48;;;;;;;262.48;40.30;;;;;;;4.91;100.00;104041.06;5032635;28;20017;-46
2022/01/13 09:35:14;;;;;;;267.05;39.83;;;;;;;4.96;100.00;104049.75;5031636;28;20397;-47
2022/01/13 09:37:39;;;;;;;239.00;37.15;;;;;;;4.97;100.00;104040.78;5031405;28;20036;-45
2022/01/13 09:40:07;;;;;;;233.50;38.78;;;;;;;5.00;100.00;104043.34;5031750;28;20065;-44
2022/01/13 09:42:33;;;;;;;271.75;38.45;;;;;;;5.01;100.00;104047.75;5033348;28;20087;-44
2022/01/13 09:45:01;;;;;;;255.32;38.00;;;;;;;5.04;100.00;104047.59;5033362;28;20021;-44
2022/01/13 09:47:29;;;;;;;240.50;39.13;;;;;;;5.14;100.00;104052.56;5032055;28;20037;-46
2022/01/13 09:49:55;;;;;;;245.45;39.78;;;;;;;5.15;100.00;104048.94;5032888;28;20090;-45
2022/01/13 09:52:20;;;;;;;255.18;40.80;;;;;;;5.12;100.00;104043.72;5032172;28;20037;-44
2022/01/13 09:54:46;;;;;;;232.32;41.03;;;;;;;5.12;100.00;104049.06;4998498;28;20013;-43
2022/01/13 09:57:12;;;;;;;252.73;40.50;;;;;;;5.09;100.00;104049.22;5032099;28;20389;-45
2022/01/13 09:59:37;;;;;;;227.85;37.70;;;;;;;5.07;100.00;104055.47;5032301;28;20029;-45
2022/01/13 10:02:03;;;;;;;248.50;41.70;;;;;;;5.12;100.00;104049.94;5030562;28;20025;-45
2022/01/13 10:04:47;;;;;;;250.23;39.83;;;;;;;5.14;100.00;104052.56;5056306;28;20031;-44
2022/01/13 10:07:17;;;;;;;257.95;40.53;;;;;;;5.11;100.00;104052.66;5034956;28;20120;-44
2022/01/13 10:09:53;;;;;;;241.23;39.58;;;;;;;5.10;100.00;104050.94;5036710;28;20035;-43
2022/01/13 10:12:28;;;;;;;230.02;40.97;;;;;;;5.20;100.00;104057.63;5032760;28;20021;-45
2022/01/13 10:17:24;;;;;;;245.40;42.40;;;;;;;5.16;100.00;104045.31;5031674;28;20500;-45
2022/01/13 10:19:50;;;;;;;289.90;44.55;;;;;;;5.16;100.00;104053.31;5032705;28;20021;-45
2022/01/13 10:22:16;;;;;;;270.60;45.03;;;;;;;5.19;100.00;104046.06;5029626;28;20418;-46
2022/01/13 10:24:44;;;;;;;278.17;44.47;;;;;;;5.25;100.00;104051.13;5032279;28;20112;-46
2022/01/13 10:27:11;;;;;;;;;;;;;;;5.35;100.00;104050.72;5032740;28;20033;-45
2022/01/13 10:29:37;;;;;;;251.32;43.25;;;;;;;5.27;100.00;104053.75;5028015;28;19967;-44
2022/01/13 10:32:03;;;;;;;256.45;46.10;;;;;;;5.23;100.00;104044.13;5041938;28;20025;-44
2022/01/13 10:34:30;;;;;;;256.27;46.70;;;;;;;5.25;100.00;104048.47;5030373;28;20033;-44
2022/01/13 10:37:00;;;;;;;251.93;45.58;;;;;;;5.25;100.00;104044.94;5025483;28;20033;-46
2022/01/13 10:39:51;;;;;;;256.73;45.97;;;;;;;5.35;100.00;104040.91;5027957;28;20037;-45
2022/01/13 10:42:45;;;;;;;236.13;45.28;;;;;;;5.36;100.00;104042.63;5028080;28;20076;-44
2022/01/13 10:45:11;;;;;;;231.32;44.85;;;;;;;5.44;100.00;104032.47;5031760;28;20087;-45
2022/01/13 10:47:40;;;;;;;227.80;45.67;;;;;;;5.53;100.00;104035.66;5031918;28;20354;-46
2022/01/13 10:50:13;;;;;;;232.07;45.20;;;;;;;5.50;100.00;104034.88;5028495;28;20026;-45
2022/01/13 10:52:39;;;;;;;209.77;43.17;;;;;;;5.53;100.00;104032.97;5029388;28;20037;-46
2022/01/13 10:55:11;;;;;;;220.02;42.83;;;;;;;5.59;100.00;104032.72;5031583;28;20468;-45
2022/01/13 10:57:37;;;;;;;206.05;41.58;;;;;;;5.65;100.00;104035.09;5032395;28;20069;-47
2022/01/13 11:00:17;;;;;;;210.32;43.47;;;;;;;5.67;100.00;104030.56;5031887;28;20060;-46
2022/01/13 11:03:03;;;;;;;196.43;43.03;;;;;;;5.62;100.00;104032.56;5031951;28;20064;-44
2022/01/13 11:05:30;;;;;;;204.32;41.47;;;;;;;5.69;100.00;104021.53;5031576;28;20136;-45
2022/01/13 11:07:57;;;;;;;190.38;42.47;;;;;;;5.72;100.00;104023.19;5031875;28;20029;-45
2022/01/13 11:10:23;;;;;;;190.68;41.45;;;;;;;5.75;100.00;104024.84;5030009;28;20033;-44
2022/01/13 11:12:56;;;;;;;187.45;41.70;;;;;;;5.83;100.00;104010.19;5031478;28;20470;-44
2022/01/13 11:15:21;;;;;;;178.52;39.63;;;;;;;5.78;100.00;104012.19;5031808;28;20037;-44